Terminal Aerodrome Forecast
Issued by NWS Blacksburg, VA

Home | Current Version | Previous Version | Text Only | Print | Product List | Glossary On
Versions: 1 2 3 4 5 6 7 8 9 10 11 12 13 14 15 16 17 18 19 20 21 22 23 24 25 26 27 28 29 30 31 32 33 34 35 36
000
FTUS41 KRNK 260520
TAFLYH
TAF
KLYH 260520Z 2606/2706 VRB03KT P6SM -RA OVC060
     FM260800 01006KT 5SM -RA BKN025 OVC050
     FM261000 02010KT 3SM -RA BR OVC009
     FM261400 01007KT 2SM -RASN OVC007
     FM262100 36006KT 5SM BR OVC010
     FM270000 27003KT P6SM SCT015 OVC050=

USA.gov is the U.S. government's official web portal to all federal, state and local government web resources and services.